sensor_id;sensor_type;location;lat;lon;timestamp;P1;durP1;ratioP1;P2;durP2;ratioP2
25111;SDS011;13092;51.996;4.458;2023-06-14T00:02:20;5.30;;;3.50;;
25111;SDS011;13092;51.996;4.458;2023-06-14T00:04:50;5.82;;;3.00;;
25111;SDS011;13092;51.996;4.458;2023-06-14T00:07:20;5.35;;;3.17;;
25111;SDS011;13092;51.996;4.458;2023-06-14T00:10:00;7.32;;;3.30;;
25111;SDS011;13092;51.996;4.458;2023-06-14T00:12:29;7.28;;;3.45;;
25111;SDS011;13092;51.996;4.458;2023-06-14T00:14:57;3.97;;;3.03;;
25111;SDS011;13092;51.996;4.458;2023-06-14T00:17:27;6.60;;;3.53;;
25111;SDS011;13092;51.996;4.458;2023-06-14T00:19:59;6.78;;;3.50;;
25111;SDS011;13092;51.996;4.458;2023-06-14T00:22:32;13.48;;;3.92;;
25111;SDS011;13092;51.996;4.458;2023-06-14T00:25:03;5.63;;;3.10;;
25111;SDS011;13092;51.996;4.458;2023-06-14T00:27:52;7.68;;;3.47;;
25111;SDS011;13092;51.996;4.458;2023-06-14T00:30:21;7.47;;;3.50;;
25111;SDS011;13092;51.996;4.458;2023-06-14T00:32:49;5.60;;;3.47;;
25111;SDS011;13092;51.996;4.458;2023-06-14T00:35:19;9.20;;;3.70;;
25111;SDS011;13092;51.996;4.458;2023-06-14T00:37:47;8.05;;;3.70;;
25111;SDS011;13092;51.996;4.458;2023-06-14T00:40:15;5.88;;;3.92;;
25111;SDS011;13092;51.996;4.458;2023-06-14T00:42:43;6.72;;;3.83;;
25111;SDS011;13092;51.996;4.458;2023-06-14T00:45:11;9.07;;;3.83;;
25111;SDS011;13092;51.996;4.458;2023-06-14T00:47:40;9.32;;;3.85;;
25111;SDS011;13092;51.996;4.458;2023-06-14T00:50:10;13.68;;;4.25;;
25111;SDS011;13092;51.996;4.458;2023-06-14T00:52:40;9.85;;;4.00;;
25111;SDS011;13092;51.996;4.458;2023-06-14T00:55:09;10.93;;;4.22;;
25111;SDS011;13092;51.996;4.458;2023-06-14T00:57:37;8.00;;;3.85;;
25111;SDS011;13092;51.996;4.458;2023-06-14T01:00:07;7.18;;;3.67;;
25111;SDS011;13092;51.996;4.458;2023-06-14T01:02:36;6.30;;;3.60;;
25111;SDS011;13092;51.996;4.458;2023-06-14T01:05:05;4.53;;;3.42;;
25111;SDS011;13092;51.996;4.458;2023-06-14T01:07:38;7.22;;;3.70;;
25111;SDS011;13092;51.996;4.458;2023-06-14T01:10:25;6.45;;;3.70;;
25111;SDS011;13092;51.996;4.458;2023-06-14T01:13:04;6.28;;;4.15;;
25111;SDS011;13092;51.996;4.458;2023-06-14T01:15:36;9.52;;;4.10;;
25111;SDS011;13092;51.996;4.458;2023-06-14T01:18:05;7.38;;;3.58;;
25111;SDS011;13092;51.996;4.458;2023-06-14T01:20:35;6.32;;;4.05;;
25111;SDS011;13092;51.996;4.458;2023-06-14T01:23:06;5.40;;;3.92;;
25111;SDS011;13092;51.996;4.458;2023-06-14T01:25:34;8.57;;;3.90;;
25111;SDS011;13092;51.996;4.458;2023-06-14T01:28:04;8.40;;;4.05;;
25111;SDS011;13092;51.996;4.458;2023-06-14T01:30:37;8.60;;;3.92;;
25111;SDS011;13092;51.996;4.458;2023-06-14T01:33:11;9.02;;;4.10;;
25111;SDS011;13092;51.996;4.458;2023-06-14T01:35:41;8.70;;;3.90;;
25111;SDS011;13092;51.996;4.458;2023-06-14T01:38:12;7.03;;;3.88;;
25111;SDS011;13092;51.996;4.458;2023-06-14T01:40:42;9.18;;;4.10;;
25111;SDS011;13092;51.996;4.458;2023-06-14T01:43:12;8.60;;;3.85;;
25111;SDS011;13092;51.996;4.458;2023-06-14T01:45:41;5.90;;;3.70;;
25111;SDS011;13092;51.996;4.458;2023-06-14T01:48:11;10.10;;;4.00;;
25111;SDS011;13092;51.996;4.458;2023-06-14T01:50:40;6.32;;;3.72;;
25111;SDS011;13092;51.996;4.458;2023-06-14T01:53:08;8.80;;;4.35;;
25111;SDS011;13092;51.996;4.458;2023-06-14T01:55:38;7.70;;;4.20;;
25111;SDS011;13092;51.996;4.458;2023-06-14T01:58:10;6.85;;;3.42;;
25111;SDS011;13092;51.996;4.458;2023-06-14T02:00:38;12.05;;;4.03;;
25111;SDS011;13092;51.996;4.458;2023-06-14T02:03:06;7.65;;;4.00;;
25111;SDS011;13092;51.996;4.458;2023-06-14T02:05:35;6.18;;;4.00;;
25111;SDS011;13092;51.996;4.458;2023-06-14T02:08:05;7.47;;;3.60;;
25111;SDS011;13092;51.996;4.458;2023-06-14T02:10:33;9.02;;;4.10;;
25111;SDS011;13092;51.996;4.458;2023-06-14T02:13:03;8.80;;;4.22;;
25111;SDS011;13092;51.996;4.458;2023-06-14T02:15:31;8.80;;;4.10;;
25111;SDS011;13092;51.996;4.458;2023-06-14T02:18:02;12.57;;;4.07;;
25111;SDS011;13092;51.996;4.458;2023-06-14T02:20:31;7.10;;;3.88;;
25111;SDS011;13092;51.996;4.458;2023-06-14T02:22:59;9.63;;;3.70;;
25111;SDS011;13092;51.996;4.458;2023-06-14T02:25:28;6.65;;;3.75;;
25111;SDS011;13092;51.996;4.458;2023-06-14T02:27:56;6.45;;;3.97;;
25111;SDS011;13092;51.996;4.458;2023-06-14T02:30:25;9.02;;;3.55;;
25111;SDS011;13092;51.996;4.458;2023-06-14T02:32:53;10.48;;;3.75;;
25111;SDS011;13092;51.996;4.458;2023-06-14T02:35:22;6.43;;;3.45;;
25111;SDS011;13092;51.996;4.458;2023-06-14T02:37:53;8.35;;;3.92;;
25111;SDS011;13092;51.996;4.458;2023-06-14T02:40:21;10.15;;;3.92;;
25111;SDS011;13092;51.996;4.458;2023-06-14T02:42:50;11.25;;;3.67;;
25111;SDS011;13092;51.996;4.458;2023-06-14T02:45:18;7.15;;;3.47;;
25111;SDS011;13092;51.996;4.458;2023-06-14T02:47:48;7.50;;;3.80;;
25111;SDS011;13092;51.996;4.458;2023-06-14T02:50:18;9.68;;;3.70;;
25111;SDS011;13092;51.996;4.458;2023-06-14T02:52:47;9.13;;;4.18;;
25111;SDS011;13092;51.996;4.458;2023-06-14T02:55:16;7.32;;;3.47;;
25111;SDS011;13092;51.996;4.458;2023-06-14T02:57:44;6.93;;;3.45;;
25111;SDS011;13092;51.996;4.458;2023-06-14T03:00:14;6.57;;;3.85;;
25111;SDS011;13092;51.996;4.458;2023-06-14T03:02:43;8.45;;;4.13;;
25111;SDS011;13092;51.996;4.458;2023-06-14T03:05:13;9.80;;;4.10;;
25111;SDS011;13092;51.996;4.458;2023-06-14T03:07:42;5.53;;;3.38;;
25111;SDS011;13092;51.996;4.458;2023-06-14T03:10:11;8.68;;;4.00;;
25111;SDS011;13092;51.996;4.458;2023-06-14T03:12:41;8.95;;;3.38;;
25111;SDS011;13092;51.996;4.458;2023-06-14T03:15:10;8.63;;;3.92;;
25111;SDS011;13092;51.996;4.458;2023-06-14T03:17:39;5.85;;;3.30;;
25111;SDS011;13092;51.996;4.458;2023-06-14T03:20:13;8.07;;;3.72;;
25111;SDS011;13092;51.996;4.458;2023-06-14T03:22:42;7.55;;;3.60;;
25111;SDS011;13092;51.996;4.458;2023-06-14T03:25:12;6.22;;;3.78;;
25111;SDS011;13092;51.996;4.458;2023-06-14T03:27:41;8.98;;;4.15;;
25111;SDS011;13092;51.996;4.458;2023-06-14T03:30:09;7.53;;;3.60;;
25111;SDS011;13092;51.996;4.458;2023-06-14T03:32:38;7.18;;;3.40;;
25111;SDS011;13092;51.996;4.458;2023-06-14T03:35:07;8.80;;;3.60;;
25111;SDS011;13092;51.996;4.458;2023-06-14T03:37:38;8.48;;;3.38;;
25111;SDS011;13092;51.996;4.458;2023-06-14T03:40:06;10.15;;;3.85;;
25111;SDS011;13092;51.996;4.458;2023-06-14T03:42:36;5.88;;;3.78;;
25111;SDS011;13092;51.996;4.458;2023-06-14T03:45:04;5.45;;;3.67;;
25111;SDS011;13092;51.996;4.458;2023-06-14T03:47:34;9.48;;;3.70;;
25111;SDS011;13092;51.996;4.458;2023-06-14T03:50:03;7.40;;;3.30;;
25111;SDS011;13092;51.996;4.458;2023-06-14T03:52:33;8.02;;;3.65;;
25111;SDS011;13092;51.996;4.458;2023-06-14T03:55:03;7.90;;;3.53;;
25111;SDS011;13092;51.996;4.458;2023-06-14T03:57:35;9.57;;;3.75;;
25111;SDS011;13092;51.996;4.458;2023-06-14T04:00:03;7.13;;;3.90;;
25111;SDS011;13092;51.996;4.458;2023-06-14T04:02:32;7.32;;;3.78;;
25111;SDS011;13092;51.996;4.458;2023-06-14T04:05:00;11.50;;;3.63;;
25111;SDS011;13092;51.996;4.458;2023-06-14T04:07:30;9.25;;;3.53;;
25111;SDS011;13092;51.996;4.458;2023-06-14T04:09:58;6.90;;;3.80;;
25111;SDS011;13092;51.996;4.458;2023-06-14T04:12:28;7.05;;;3.28;;
25111;SDS011;13092;51.996;4.458;2023-06-14T04:14:56;7.78;;;3.75;;
25111;SDS011;13092;51.996;4.458;2023-06-14T04:17:44;6.97;;;3.95;;
25111;SDS011;13092;51.996;4.458;2023-06-14T04:20:12;7.55;;;3.65;;
25111;SDS011;13092;51.996;4.458;2023-06-14T04:22:40;8.20;;;3.60;;
25111;SDS011;13092;51.996;4.458;2023-06-14T04:25:09;8.05;;;3.42;;
25111;SDS011;13092;51.996;4.458;2023-06-14T04:27:39;9.73;;;3.78;;
25111;SDS011;13092;51.996;4.458;2023-06-14T04:30:08;8.07;;;3.58;;
25111;SDS011;13092;51.996;4.458;2023-06-14T04:32:39;8.50;;;3.60;;
25111;SDS011;13092;51.996;4.458;2023-06-14T04:35:09;7.47;;;3.47;;
25111;SDS011;13092;51.996;4.458;2023-06-14T04:37:37;13.55;;;4.35;;
25111;SDS011;13092;51.996;4.458;2023-06-14T04:40:10;10.48;;;3.63;;
25111;SDS011;13092;51.996;4.458;2023-06-14T04:42:40;7.10;;;3.70;;
25111;SDS011;13092;51.996;4.458;2023-06-14T04:45:12;5.70;;;3.45;;
25111;SDS011;13092;51.996;4.458;2023-06-14T04:47:43;5.63;;;3.30;;
25111;SDS011;13092;51.996;4.458;2023-06-14T04:50:12;5.78;;;3.50;;
25111;SDS011;13092;51.996;4.458;2023-06-14T04:52:41;7.30;;;3.47;;
25111;SDS011;13092;51.996;4.458;2023-06-14T04:55:10;7.65;;;3.30;;
25111;SDS011;13092;51.996;4.458;2023-06-14T04:57:39;5.60;;;3.70;;
25111;SDS011;13092;51.996;4.458;2023-06-14T05:00:08;4.93;;;3.40;;
25111;SDS011;13092;51.996;4.458;2023-06-14T05:02:38;6.50;;;3.40;;
25111;SDS011;13092;51.996;4.458;2023-06-14T05:05:07;8.73;;;3.83;;
25111;SDS011;13092;51.996;4.458;2023-06-14T05:07:35;8.60;;;3.60;;
25111;SDS011;13092;51.996;4.458;2023-06-14T05:10:07;11.65;;;3.95;;
25111;SDS011;13092;51.996;4.458;2023-06-14T05:12:36;8.45;;;3.50;;
25111;SDS011;13092;51.996;4.458;2023-06-14T05:15:06;6.35;;;3.60;;
25111;SDS011;13092;51.996;4.458;2023-06-14T05:17:36;9.35;;;4.38;;
25111;SDS011;13092;51.996;4.458;2023-06-14T05:20:07;6.75;;;3.47;;
25111;SDS011;13092;51.996;4.458;2023-06-14T05:22:37;9.57;;;3.55;;
25111;SDS011;13092;51.996;4.458;2023-06-14T05:25:05;6.60;;;3.38;;
25111;SDS011;13092;51.996;4.458;2023-06-14T05:27:34;8.27;;;3.25;;
25111;SDS011;13092;51.996;4.458;2023-06-14T05:30:04;8.02;;;3.35;;
25111;SDS011;13092;51.996;4.458;2023-06-14T05:32:35;4.72;;;3.20;;
25111;SDS011;13092;51.996;4.458;2023-06-14T05:35:03;8.70;;;3.70;;
25111;SDS011;13092;51.996;4.458;2023-06-14T05:37:32;10.43;;;3.40;;
25111;SDS011;13092;51.996;4.458;2023-06-14T05:40:00;6.78;;;3.28;;
25111;SDS011;13092;51.996;4.458;2023-06-14T05:42:30;4.97;;;2.83;;
25111;SDS011;13092;51.996;4.458;2023-06-14T05:44:58;11.20;;;3.88;;
25111;SDS011;13092;51.996;4.458;2023-06-14T05:47:28;8.82;;;3.30;;
25111;SDS011;13092;51.996;4.458;2023-06-14T05:49:56;6.88;;;3.47;;
25111;SDS011;13092;51.996;4.458;2023-06-14T05:52:24;8.02;;;3.47;;
25111;SDS011;13092;51.996;4.458;2023-06-14T05:54:52;10.55;;;3.45;;
25111;SDS011;13092;51.996;4.458;2023-06-14T05:57:21;7.30;;;3.47;;
25111;SDS011;13092;51.996;4.458;2023-06-14T05:59:49;9.88;;;3.63;;
25111;SDS011;13092;51.996;4.458;2023-06-14T06:02:17;6.07;;;3.22;;
25111;SDS011;13092;51.996;4.458;2023-06-14T06:04:47;5.85;;;3.33;;
25111;SDS011;13092;51.996;4.458;2023-06-14T06:07:15;7.35;;;3.40;;
25111;SDS011;13092;51.996;4.458;2023-06-14T06:09:43;8.25;;;3.58;;
25111;SDS011;13092;51.996;4.458;2023-06-14T06:12:12;4.68;;;2.95;;
25111;SDS011;13092;51.996;4.458;2023-06-14T06:14:40;10.77;;;3.70;;
25111;SDS011;13092;51.996;4.458;2023-06-14T06:17:08;7.97;;;3.60;;
25111;SDS011;13092;51.996;4.458;2023-06-14T06:19:36;9.68;;;3.60;;
25111;SDS011;13092;51.996;4.458;2023-06-14T06:22:06;6.50;;;3.38;;
25111;SDS011;13092;51.996;4.458;2023-06-14T06:24:34;9.65;;;3.65;;
25111;SDS011;13092;51.996;4.458;2023-06-14T06:27:03;8.55;;;3.65;;
25111;SDS011;13092;51.996;4.458;2023-06-14T06:29:31;8.82;;;3.70;;
25111;SDS011;13092;51.996;4.458;2023-06-14T06:31:59;6.10;;;3.40;;
25111;SDS011;13092;51.996;4.458;2023-06-14T06:34:28;8.30;;;3.65;;
25111;SDS011;13092;51.996;4.458;2023-06-14T06:36:56;7.85;;;3.75;;
25111;SDS011;13092;51.996;4.458;2023-06-14T06:39:25;8.35;;;3.40;;
25111;SDS011;13092;51.996;4.458;2023-06-14T06:41:53;4.93;;;3.20;;
25111;SDS011;13092;51.996;4.458;2023-06-14T06:44:22;7.80;;;3.78;;
25111;SDS011;13092;51.996;4.458;2023-06-14T06:46:50;5.70;;;3.70;;
25111;SDS011;13092;51.996;4.458;2023-06-14T06:49:19;12.23;;;3.40;;
25111;SDS011;13092;51.996;4.458;2023-06-14T06:51:58;7.28;;;3.88;;
25111;SDS011;13092;51.996;4.458;2023-06-14T06:54:29;4.68;;;3.42;;
25111;SDS011;13092;51.996;4.458;2023-06-14T06:56:58;6.72;;;3.70;;
25111;SDS011;13092;51.996;4.458;2023-06-14T06:59:27;10.65;;;3.65;;
25111;SDS011;13092;51.996;4.458;2023-06-14T07:01:56;6.15;;;3.50;;
25111;SDS011;13092;51.996;4.458;2023-06-14T07:04:24;7.25;;;3.53;;
25111;SDS011;13092;51.996;4.458;2023-06-14T07:06:52;7.63;;;3.80;;
25111;SDS011;13092;51.996;4.458;2023-06-14T07:09:21;8.75;;;3.53;;
25111;SDS011;13092;51.996;4.458;2023-06-14T07:11:50;7.18;;;3.70;;
25111;SDS011;13092;51.996;4.458;2023-06-14T07:14:18;9.25;;;3.75;;
25111;SDS011;13092;51.996;4.458;2023-06-14T07:16:49;9.23;;;3.85;;
25111;SDS011;13092;51.996;4.458;2023-06-14T07:19:17;6.57;;;3.70;;
25111;SDS011;13092;51.996;4.458;2023-06-14T07:21:46;8.07;;;3.83;;
25111;SDS011;13092;51.996;4.458;2023-06-14T07:24:14;10.98;;;3.85;;
25111;SDS011;13092;51.996;4.458;2023-06-14T07:26:42;11.13;;;4.32;;
25111;SDS011;13092;51.996;4.458;2023-06-14T07:29:12;6.82;;;4.15;;
25111;SDS011;13092;51.996;4.458;2023-06-14T07:31:40;10.95;;;4.15;;
25111;SDS011;13092;51.996;4.458;2023-06-14T07:34:09;5.88;;;3.60;;
25111;SDS011;13092;51.996;4.458;2023-06-14T07:36:37;12.80;;;4.88;;
25111;SDS011;13092;51.996;4.458;2023-06-14T07:39:05;9.70;;;3.88;;
25111;SDS011;13092;51.996;4.458;2023-06-14T07:41:33;9.98;;;4.05;;
25111;SDS011;13092;51.996;4.458;2023-06-14T07:44:02;13.05;;;4.70;;
25111;SDS011;13092;51.996;4.458;2023-06-14T07:46:32;7.47;;;4.35;;
25111;SDS011;13092;51.996;4.458;2023-06-14T07:49:01;7.18;;;3.40;;
25111;SDS011;13092;51.996;4.458;2023-06-14T07:51:29;7.75;;;3.70;;
25111;SDS011;13092;51.996;4.458;2023-06-14T07:53:58;7.90;;;3.55;;
25111;SDS011;13092;51.996;4.458;2023-06-14T07:56:27;7.63;;;3.80;;
25111;SDS011;13092;51.996;4.458;2023-06-14T07:58:55;8.15;;;4.13;;
25111;SDS011;13092;51.996;4.458;2023-06-14T08:01:36;10.18;;;4.00;;
25111;SDS011;13092;51.996;4.458;2023-06-14T08:04:05;6.82;;;3.72;;
25111;SDS011;13092;51.996;4.458;2023-06-14T08:06:33;10.50;;;3.90;;
25111;SDS011;13092;51.996;4.458;2023-06-14T08:09:02;7.18;;;4.00;;
25111;SDS011;13092;51.996;4.458;2023-06-14T08:11:30;15.00;;;4.18;;
25111;SDS011;13092;51.996;4.458;2023-06-14T08:14:02;8.77;;;3.83;;
25111;SDS011;13092;51.996;4.458;2023-06-14T08:16:31;7.72;;;3.47;;
25111;SDS011;13092;51.996;4.458;2023-06-14T08:19:00;7.70;;;3.67;;
25111;SDS011;13092;51.996;4.458;2023-06-14T08:21:28;8.52;;;3.92;;
25111;SDS011;13092;51.996;4.458;2023-06-14T08:23:59;7.40;;;3.70;;
25111;SDS011;13092;51.996;4.458;2023-06-14T08:26:28;10.10;;;4.00;;
25111;SDS011;13092;51.996;4.458;2023-06-14T08:28:58;9.32;;;3.90;;
25111;SDS011;13092;51.996;4.458;2023-06-14T08:31:26;7.88;;;3.60;;
25111;SDS011;13092;51.996;4.458;2023-06-14T08:33:54;6.82;;;3.90;;
25111;SDS011;13092;51.996;4.458;2023-06-14T08:36:24;9.65;;;3.90;;
25111;SDS011;13092;51.996;4.458;2023-06-14T08:38:52;7.78;;;4.07;;
25111;SDS011;13092;51.996;4.458;2023-06-14T08:41:21;12.35;;;3.67;;
25111;SDS011;13092;51.996;4.458;2023-06-14T08:43:50;5.82;;;3.60;;
25111;SDS011;13092;51.996;4.458;2023-06-14T08:46:18;7.70;;;3.75;;
25111;SDS011;13092;51.996;4.458;2023-06-14T08:48:48;12.35;;;3.88;;
25111;SDS011;13092;51.996;4.458;2023-06-14T08:51:18;6.57;;;3.47;;
25111;SDS011;13092;51.996;4.458;2023-06-14T08:53:51;8.98;;;3.50;;
25111;SDS011;13092;51.996;4.458;2023-06-14T08:56:21;8.35;;;4.20;;
25111;SDS011;13092;51.996;4.458;2023-06-14T08:58:52;9.52;;;3.95;;
25111;SDS011;13092;51.996;4.458;2023-06-14T09:01:20;6.43;;;3.47;;
25111;SDS011;13092;51.996;4.458;2023-06-14T09:03:49;8.13;;;3.53;;
25111;SDS011;13092;51.996;4.458;2023-06-14T09:06:18;7.97;;;3.58;;
25111;SDS011;13092;51.996;4.458;2023-06-14T09:08:51;6.85;;;3.20;;
25111;SDS011;13092;51.996;4.458;2023-06-14T09:11:20;8.10;;;3.38;;
25111;SDS011;13092;51.996;4.458;2023-06-14T09:13:48;6.72;;;3.42;;
25111;SDS011;13092;51.996;4.458;2023-06-14T09:16:17;6.32;;;3.63;;
25111;SDS011;13092;51.996;4.458;2023-06-14T09:18:45;7.97;;;3.30;;
25111;SDS011;13092;51.996;4.458;2023-06-14T09:21:15;7.95;;;3.50;;
25111;SDS011;13092;51.996;4.458;2023-06-14T09:23:47;8.40;;;3.38;;
25111;SDS011;13092;51.996;4.458;2023-06-14T09:26:23;6.68;;;3.33;;
25111;SDS011;13092;51.996;4.458;2023-06-14T09:31:35;7.32;;;3.30;;
25111;SDS011;13092;51.996;4.458;2023-06-14T09:34:03;8.73;;;3.40;;
25111;SDS011;13092;51.996;4.458;2023-06-14T09:36:32;8.15;;;3.15;;
25111;SDS011;13092;51.996;4.458;2023-06-14T09:39:01;7.32;;;3.15;;
25111;SDS011;13092;51.996;4.458;2023-06-14T09:41:34;5.80;;;3.00;;
25111;SDS011;13092;51.996;4.458;2023-06-14T09:44:05;6.00;;;2.90;;
25111;SDS011;13092;51.996;4.458;2023-06-14T09:46:37;4.68;;;2.88;;
25111;SDS011;13092;51.996;4.458;2023-06-14T09:49:09;8.45;;;3.60;;
25111;SDS011;13092;51.996;4.458;2023-06-14T09:51:42;6.03;;;3.30;;
25111;SDS011;13092;51.996;4.458;2023-06-14T09:54:15;7.43;;;3.40;;
25111;SDS011;13092;51.996;4.458;2023-06-14T09:56:48;7.97;;;3.42;;
25111;SDS011;13092;51.996;4.458;2023-06-14T09:59:19;6.65;;;2.97;;
25111;SDS011;13092;51.996;4.458;2023-06-14T10:01:53;11.30;;;2.95;;
25111;SDS011;13092;51.996;4.458;2023-06-14T10:04:26;8.25;;;3.28;;
25111;SDS011;13092;51.996;4.458;2023-06-14T10:06:59;6.13;;;2.70;;
25111;SDS011;13092;51.996;4.458;2023-06-14T10:09:29;6.80;;;2.90;;
25111;SDS011;13092;51.996;4.458;2023-06-14T10:12:02;5.35;;;2.72;;
25111;SDS011;13092;51.996;4.458;2023-06-14T10:14:34;7.10;;;2.75;;
25111;SDS011;13092;51.996;4.458;2023-06-14T10:17:04;4.35;;;2.83;;
25111;SDS011;13092;51.996;4.458;2023-06-14T10:19:37;3.80;;;2.58;;
25111;SDS011;13092;51.996;4.458;2023-06-14T10:22:09;5.93;;;2.60;;
25111;SDS011;13092;51.996;4.458;2023-06-14T10:24:43;4.45;;;2.50;;
25111;SDS011;13092;51.996;4.458;2023-06-14T10:30:03;3.38;;;2.53;;
25111;SDS011;13092;51.996;4.458;2023-06-14T10:35:33;5.28;;;2.85;;
25111;SDS011;13092;51.996;4.458;2023-06-14T10:38:08;4.55;;;2.40;;
25111;SDS011;13092;51.996;4.458;2023-06-14T10:40:37;4.30;;;2.42;;
25111;SDS011;13092;51.996;4.458;2023-06-14T10:43:22;2.92;;;2.50;;
25111;SDS011;13092;51.996;4.458;2023-06-14T10:48:42;4.30;;;2.65;;
25111;SDS011;13092;51.996;4.458;2023-06-14T10:51:17;6.00;;;2.58;;
25111;SDS011;13092;51.996;4.458;2023-06-14T10:53:49;3.70;;;2.40;;
25111;SDS011;13092;51.996;4.458;2023-06-14T10:56:26;4.32;;;2.45;;
25111;SDS011;13092;51.996;4.458;2023-06-14T10:58:57;4.30;;;2.40;;
25111;SDS011;13092;51.996;4.458;2023-06-14T11:01:31;3.95;;;2.25;;
25111;SDS011;13092;51.996;4.458;2023-06-14T11:04:07;2.50;;;2.00;;
25111;SDS011;13092;51.996;4.458;2023-06-14T11:09:41;6.22;;;2.40;;
25111;SDS011;13092;51.996;4.458;2023-06-14T11:12:20;3.28;;;2.30;;
25111;SDS011;13092;51.996;4.458;2023-06-14T11:14:51;3.45;;;2.28;;
25111;SDS011;13092;51.996;4.458;2023-06-14T11:17:20;4.00;;;2.30;;
25111;SDS011;13092;51.996;4.458;2023-06-14T11:19:48;4.93;;;2.40;;
25111;SDS011;13092;51.996;4.458;2023-06-14T11:22:17;2.83;;;2.17;;
25111;SDS011;13092;51.996;4.458;2023-06-14T11:24:45;2.88;;;2.20;;
25111;SDS011;13092;51.996;4.458;2023-06-14T11:27:14;5.43;;;2.40;;
25111;SDS011;13092;51.996;4.458;2023-06-14T11:29:47;3.05;;;2.28;;
25111;SDS011;13092;51.996;4.458;2023-06-14T11:32:18;5.15;;;2.17;;
25111;SDS011;13092;51.996;4.458;2023-06-14T11:34:46;2.65;;;1.83;;
25111;SDS011;13092;51.996;4.458;2023-06-14T11:37:15;4.90;;;2.22;;
25111;SDS011;13092;51.996;4.458;2023-06-14T11:39:43;3.35;;;2.10;;
25111;SDS011;13092;51.996;4.458;2023-06-14T11:42:13;3.40;;;1.98;;
25111;SDS011;13092;51.996;4.458;2023-06-14T11:44:42;2.80;;;2.03;;
25111;SDS011;13092;51.996;4.458;2023-06-14T11:47:12;3.58;;;2.15;;
25111;SDS011;13092;51.996;4.458;2023-06-14T11:49:42;3.80;;;2.55;;
25111;SDS011;13092;51.996;4.458;2023-06-14T11:52:12;6.43;;;2.08;;
25111;SDS011;13092;51.996;4.458;2023-06-14T11:54:42;2.63;;;2.10;;
25111;SDS011;13092;51.996;4.458;2023-06-14T11:57:10;8.07;;;2.38;;
25111;SDS011;13092;51.996;4.458;2023-06-14T11:59:38;2.90;;;1.90;;
25111;SDS011;13092;51.996;4.458;2023-06-14T12:02:07;2.35;;;1.88;;
25111;SDS011;13092;51.996;4.458;2023-06-14T12:04:35;2.38;;;1.88;;
25111;SDS011;13092;51.996;4.458;2023-06-14T12:07:12;2.47;;;1.90;;
25111;SDS011;13092;51.996;4.458;2023-06-14T12:09:41;4.80;;;2.30;;
25111;SDS011;13092;51.996;4.458;2023-06-14T12:12:12;6.07;;;2.05;;
25111;SDS011;13092;51.996;4.458;2023-06-14T12:14:41;2.85;;;2.10;;
25111;SDS011;13092;51.996;4.458;2023-06-14T12:17:09;4.32;;;2.03;;
25111;SDS011;13092;51.996;4.458;2023-06-14T12:19:41;3.38;;;1.98;;
25111;SDS011;13092;51.996;4.458;2023-06-14T12:22:12;2.42;;;1.98;;
25111;SDS011;13092;51.996;4.458;2023-06-14T12:24:42;4.05;;;2.25;;
25111;SDS011;13092;51.996;4.458;2023-06-14T12:27:11;3.78;;;2.25;;
25111;SDS011;13092;51.996;4.458;2023-06-14T12:29:42;3.67;;;2.40;;
25111;SDS011;13092;51.996;4.458;2023-06-14T12:32:10;5.70;;;1.90;;
25111;SDS011;13092;51.996;4.458;2023-06-14T12:34:39;5.00;;;2.10;;
25111;SDS011;13092;51.996;4.458;2023-06-14T12:37:07;2.75;;;2.08;;
25111;SDS011;13092;51.996;4.458;2023-06-14T12:39:38;2.67;;;2.00;;
25111;SDS011;13092;51.996;4.458;2023-06-14T12:42:07;2.47;;;2.10;;
25111;SDS011;13092;51.996;4.458;2023-06-14T12:44:35;6.57;;;2.17;;
25111;SDS011;13092;51.996;4.458;2023-06-14T12:47:07;2.78;;;2.13;;
25111;SDS011;13092;51.996;4.458;2023-06-14T12:49:35;3.35;;;2.15;;
25111;SDS011;13092;51.996;4.458;2023-06-14T12:52:04;4.20;;;2.20;;
25111;SDS011;13092;51.996;4.458;2023-06-14T12:54:33;5.90;;;2.42;;
25111;SDS011;13092;51.996;4.458;2023-06-14T12:57:08;3.35;;;2.28;;
25111;SDS011;13092;51.996;4.458;2023-06-14T12:59:36;4.18;;;2.10;;
25111;SDS011;13092;51.996;4.458;2023-06-14T13:02:12;2.83;;;1.75;;
25111;SDS011;13092;51.996;4.458;2023-06-14T13:04:41;4.55;;;2.10;;
25111;SDS011;13092;51.996;4.458;2023-06-14T13:07:10;3.55;;;2.30;;
25111;SDS011;13092;51.996;4.458;2023-06-14T13:09:38;4.00;;;2.33;;
25111;SDS011;13092;51.996;4.458;2023-06-14T13:12:09;2.97;;;2.22;;
25111;SDS011;13092;51.996;4.458;2023-06-14T13:14:38;3.60;;;2.10;;
25111;SDS011;13092;51.996;4.458;2023-06-14T13:17:08;3.95;;;2.20;;
25111;SDS011;13092;51.996;4.458;2023-06-14T13:19:37;3.53;;;2.40;;
25111;SDS011;13092;51.996;4.458;2023-06-14T13:22:05;4.05;;;2.28;;
25111;SDS011;13092;51.996;4.458;2023-06-14T13:24:34;2.90;;;2.00;;
25111;SDS011;13092;51.996;4.458;2023-06-14T13:27:05;3.25;;;2.20;;
25111;SDS011;13092;51.996;4.458;2023-06-14T13:29:35;3.72;;;2.10;;
25111;SDS011;13092;51.996;4.458;2023-06-14T13:32:14;3.17;;;2.00;;
25111;SDS011;13092;51.996;4.458;2023-06-14T13:34:43;6.43;;;2.30;;
25111;SDS011;13092;51.996;4.458;2023-06-14T13:37:12;5.45;;;2.50;;
25111;SDS011;13092;51.996;4.458;2023-06-14T13:39:40;4.03;;;2.10;;
25111;SDS011;13092;51.996;4.458;2023-06-14T13:42:11;3.47;;;2.00;;
25111;SDS011;13092;51.996;4.458;2023-06-14T13:44:39;3.13;;;2.00;;
25111;SDS011;13092;51.996;4.458;2023-06-14T13:47:13;4.45;;;2.33;;
25111;SDS011;13092;51.996;4.458;2023-06-14T13:49:42;2.20;;;2.00;;
25111;SDS011;13092;51.996;4.458;2023-06-14T13:52:10;4.47;;;2.13;;
25111;SDS011;13092;51.996;4.458;2023-06-14T13:54:39;5.20;;;2.53;;
25111;SDS011;13092;51.996;4.458;2023-06-14T13:57:08;2.28;;;1.90;;
25111;SDS011;13092;51.996;4.458;2023-06-14T13:59:39;2.38;;;2.00;;
25111;SDS011;13092;51.996;4.458;2023-06-14T14:02:10;2.28;;;1.90;;
25111;SDS011;13092;51.996;4.458;2023-06-14T14:04:38;5.15;;;2.28;;
25111;SDS011;13092;51.996;4.458;2023-06-14T14:07:07;4.55;;;2.58;;
25111;SDS011;13092;51.996;4.458;2023-06-14T14:09:36;2.40;;;1.90;;
25111;SDS011;13092;51.996;4.458;2023-06-14T14:12:06;3.97;;;2.10;;
25111;SDS011;13092;51.996;4.458;2023-06-14T14:14:39;2.78;;;2.25;;
25111;SDS011;13092;51.996;4.458;2023-06-14T14:17:07;2.38;;;2.00;;
25111;SDS011;13092;51.996;4.458;2023-06-14T14:19:35;3.08;;;2.20;;
25111;SDS011;13092;51.996;4.458;2023-06-14T14:22:06;3.33;;;2.10;;
25111;SDS011;13092;51.996;4.458;2023-06-14T14:24:34;5.13;;;2.38;;
25111;SDS011;13092;51.996;4.458;2023-06-14T14:27:02;5.63;;;2.20;;
25111;SDS011;13092;51.996;4.458;2023-06-14T14:29:31;5.55;;;2.42;;
25111;SDS011;13092;51.996;4.458;2023-06-14T14:32:02;4.03;;;2.10;;
25111;SDS011;13092;51.996;4.458;2023-06-14T14:34:30;5.53;;;2.38;;
25111;SDS011;13092;51.996;4.458;2023-06-14T14:36:59;3.33;;;2.30;;
25111;SDS011;13092;51.996;4.458;2023-06-14T14:39:28;3.17;;;2.38;;
25111;SDS011;13092;51.996;4.458;2023-06-14T14:41:56;3.78;;;2.28;;
25111;SDS011;13092;51.996;4.458;2023-06-14T14:44:25;6.20;;;2.35;;
25111;SDS011;13092;51.996;4.458;2023-06-14T14:46:53;2.95;;;2.10;;
25111;SDS011;13092;51.996;4.458;2023-06-14T14:49:24;3.30;;;2.20;;
25111;SDS011;13092;51.996;4.458;2023-06-14T14:51:52;3.38;;;2.20;;
25111;SDS011;13092;51.996;4.458;2023-06-14T14:54:30;4.60;;;2.30;;
25111;SDS011;13092;51.996;4.458;2023-06-14T14:56:58;6.88;;;2.00;;
25111;SDS011;13092;51.996;4.458;2023-06-14T14:59:27;4.28;;;2.55;;
25111;SDS011;13092;51.996;4.458;2023-06-14T15:01:55;6.50;;;2.28;;
25111;SDS011;13092;51.996;4.458;2023-06-14T15:04:25;3.40;;;2.00;;
25111;SDS011;13092;51.996;4.458;2023-06-14T15:06:53;4.07;;;2.10;;
25111;SDS011;13092;51.996;4.458;2023-06-14T15:09:21;5.43;;;2.17;;
25111;SDS011;13092;51.996;4.458;2023-06-14T15:11:49;5.82;;;1.98;;
25111;SDS011;13092;51.996;4.458;2023-06-14T15:14:17;5.60;;;2.00;;
25111;SDS011;13092;51.996;4.458;2023-06-14T15:16:46;7.03;;;2.30;;